Time;durP1;ratioP1;P1;durP2;ratioP2;P2;SDS_P1;SDS_P2;PMS_P1;PMS_P2;Temp;Humidity;BMP_temperature;BMP_pressure;BME280_temperature;BME280_humidity;BME280_pressure;Samples;Min_cycle;Max_cycle;Signal;HPM_P1;HPM_P2
2022/12/20 00:01:13;;;;;;;11.07;4.47;;;;;;;8.22;100.00;100682.94;4951480;28;20047;-66
2022/12/20 00:03:39;;;;;;;9.27;4.10;;;;;;;8.30;100.00;100697.38;4951928;28;20518;-68
2022/12/20 00:06:05;;;;;;;7.53;3.85;;;;;;;8.32;100.00;100695.91;4945850;28;20031;-66
2022/12/20 00:08:33;;;;;;;7.00;4.05;;;;;;;8.34;100.00;100707.09;4952274;28;20114;-66
2022/12/20 00:11:20;;;;;;;6.00;2.92;;;;;;;8.46;100.00;100693.63;4949206;29;20030;-66
2022/12/20 00:13:46;;;;;;;7.60;4.07;;;;;;;8.40;100.00;100686.94;4892263;29;20049;-68
2022/12/20 00:16:15;;;;;;;9.07;5.03;;;;;;;8.42;100.00;100682.00;4892756;29;20056;-67
2022/12/20 00:18:42;;;;;;;8.23;3.83;;;;;;;8.53;100.00;100683.13;4877651;29;20036;-66
2022/12/20 00:21:10;;;;;;;5.43;3.42;;;;;;;8.59;100.00;100676.41;4876518;29;20052;-69
2022/12/20 00:23:56;;;;;;;9.70;4.05;;;;;;;8.65;100.00;100680.38;4860650;29;20036;-66
2022/12/20 00:26:24;;;;;;;9.95;4.45;;;;;;;8.56;100.00;100679.75;4855197;29;20761;-66
2022/12/20 00:28:49;;;;;;;4.93;3.15;;;;;;;8.54;100.00;100692.72;4855019;29;20534;-68
2022/12/20 00:31:17;;;;;;;8.05;4.13;;;;;;;8.70;100.00;100676.69;4830006;29;20042;-66
2022/12/20 00:33:48;;;;;;;10.00;4.35;;;;;;;8.68;100.00;100674.34;4823199;29;20406;-66
2022/12/20 00:36:15;;;;;;;8.93;3.45;;;;;;;8.76;100.00;100665.38;4848622;29;20151;-66
2022/12/20 00:38:44;;;;;;;5.57;3.47;;;;;;;8.71;100.00;100664.84;4853225;29;20376;-66
2022/12/20 00:41:12;;;;;;;5.22;3.58;;;;;;;8.81;100.00;100664.31;4851763;29;20200;-67
2022/12/20 00:43:39;;;;;;;7.00;3.80;;;;;;;8.77;100.00;100674.97;4822311;29;20136;-66
2022/12/20 00:46:05;;;;;;;5.40;3.53;;;;;;;8.71;100.00;100678.25;4854985;29;20037;-67
2022/12/20 00:48:31;;;;;;;5.07;3.33;;;;;;;8.70;100.00;100677.47;4822266;29;20037;-67
2022/12/20 00:51:02;;;;;;;7.70;4.25;;;;;;;8.76;100.00;100665.38;4881769;29;20559;-67
2022/12/20 00:53:28;;;;;;;6.60;4.03;;;;;;;8.73;100.00;100659.91;4890212;29;20044;-67
2022/12/20 00:55:54;;;;;;;5.47;3.05;;;;;;;8.75;100.00;100658.41;4889763;29;20088;-67
2022/12/20 00:58:20;;;;;;;10.38;4.35;;;;;;;8.80;100.00;100668.16;4877972;29;20041;-64
2022/12/20 01:00:47;;;;;;;7.72;4.68;;;;;;;8.91;100.00;100666.53;4893641;29;20051;-65
2022/12/20 01:03:13;;;;;;;7.28;3.58;;;;;;;8.91;100.00;100677.25;4915006;29;20046;-65
2022/12/20 01:05:38;;;;;;;7.13;3.60;;;;;;;8.85;100.00;100668.69;4937769;29;20118;-65
2022/12/20 01:08:05;;;;;;;7.38;4.00;;;;;;;8.88;100.00;100662.59;4953891;29;20122;-66
2022/12/20 01:10:32;;;;;;;5.05;3.17;;;;;;;8.88;100.00;100667.97;4951445;28;20033;-67
2022/12/20 01:12:58;;;;;;;10.27;3.85;;;;;;;8.89;100.00;100655.34;4949504;28;20386;-66
2022/12/20 01:15:24;;;;;;;7.05;3.83;;;;;;;8.89;100.00;100655.34;4952814;29;20041;-67
2022/12/20 01:17:50;;;;;;;6.35;3.72;;;;;;;8.83;100.00;100660.19;4954717;28;20031;-64
2022/12/20 01:20:15;;;;;;;7.13;3.70;;;;;;;8.87;100.00;100654.91;4951869;28;20122;-65
2022/12/20 01:22:41;;;;;;;9.73;3.90;;;;;;;8.90;100.00;100641.56;4942202;28;20679;-64
2022/12/20 01:25:07;;;;;;;7.85;3.03;;;;;;;8.98;100.00;100648.69;4953767;28;20559;-64
2022/12/20 01:27:32;;;;;;;8.15;4.28;;;;;;;8.79;100.00;100655.81;4953606;29;20031;-67
2022/12/20 01:29:58;;;;;;;7.50;4.32;;;;;;;8.76;100.00;100648.47;4926964;28;20042;-66
2022/12/20 01:32:23;;;;;;;6.43;3.10;;;;;;;8.76;100.00;100651.94;4967897;28;20035;-66
2022/12/20 01:34:49;;;;;;;9.07;4.60;;;;;;;8.78;100.00;100644.34;4953917;28;20429;-66
2022/12/20 01:37:15;;;;;;;8.10;4.03;;;;;;;8.97;100.00;100659.78;4954400;28;20035;-68
2022/12/20 01:39:40;;;;;;;9.00;3.67;;;;;;;8.99;100.00;100668.28;4949820;28;20047;-67
2022/12/20 01:42:06;;;;;;;5.78;3.13;;;;;;;8.98;100.00;100661.34;4953404;28;20051;-67
2022/12/20 01:44:31;;;;;;;9.23;4.47;;;;;;;9.02;100.00;100663.00;4933343;29;20047;-67
2022/12/20 01:46:56;;;;;;;8.48;3.50;;;;;;;9.16;100.00;100661.78;4946934;29;20042;-69
2022/12/20 01:49:31;;;;;;;5.93;3.47;;;;;;;9.19;100.00;100661.13;4948899;28;20042;-68
2022/12/20 01:52:03;;;;;;;6.53;3.40;;;;;;;9.20;100.00;100671.53;4951447;29;20093;-68
2022/12/20 01:54:51;;;;;;;13.73;4.80;;;;;;;9.13;99.97;100657.91;4951204;29;20790;-66
2022/12/20 01:57:24;;;;;;;6.45;3.78;;;;;;;9.18;100.00;100648.81;4951650;28;20393;-66
2022/12/20 01:59:54;;;;;;;10.88;4.93;;;;;;;9.04;100.00;100652.69;4950967;29;20031;-66
2022/12/20 02:02:20;;;;;;;7.88;4.00;;;;;;;9.17;100.00;100640.00;4943440;29;20428;-66
2022/12/20 02:04:45;;;;;;;7.78;4.35;;;;;;;9.14;100.00;100640.66;4952667;28;20039;-66
2022/12/20 02:07:18;;;;;;;10.20;4.15;;;;;;;9.26;100.00;100635.22;4953575;28;20039;-66
2022/12/20 02:10:04;;;;;;;6.65;3.83;;;;;;;9.24;100.00;100637.47;4936016;28;20039;-66
2022/12/20 02:12:39;;;;;;;9.38;4.00;;;;;;;9.16;100.00;100634.94;4928156;29;20051;-66
2022/12/20 02:15:40;;;;;;;6.85;3.97;;;;;;;9.20;100.00;100639.28;4913207;29;21586;-66
2022/12/20 02:18:30;;;;;;;6.35;3.33;;;;;;;9.32;100.00;100643.78;4921666;29;20414;-66
2022/12/20 02:21:11;;;;;;;8.48;3.88;;;;;;;9.35;100.00;100649.25;4930417;29;20040;-66
2022/12/20 02:24:04;;;;;;;5.63;3.30;;;;;;;9.46;99.83;100638.78;4927113;29;20509;-66
2022/12/20 02:26:58;;;;;;;5.78;3.63;;;;;;;9.41;100.00;100639.03;4931624;29;20046;-66
2022/12/20 02:29:30;;;;;;;4.93;3.50;;;;;;;9.35;100.00;100633.13;4934086;29;20710;-65
2022/12/20 02:32:13;;;;;;;8.30;3.95;;;;;;;9.41;100.00;100637.13;4912183;29;20409;-66
2022/12/20 02:34:40;;;;;;;4.88;3.08;;;;;;;9.48;100.00;100636.53;4914241;29;20050;-66
2022/12/20 02:37:06;;;;;;;9.30;4.60;;;;;;;9.35;100.00;100618.94;4915361;29;20180;-65
2022/12/20 02:39:33;;;;;;;7.82;3.67;;;;;;;9.51;100.00;100627.75;4918135;29;20048;-66
2022/12/20 02:42:21;;;;;;;6.22;3.95;;;;;;;9.61;100.00;100630.72;4890467;29;20039;-66
2022/12/20 02:47:44;;;;;;;;;;;;;;;9.67;100.00;100617.78;4918038;29;20567;-66
2022/12/20 02:50:10;;;;;;;5.95;3.45;;;;;;;9.60;100.00;100614.94;4944680;28;19928;-66
2022/12/20 02:52:38;;;;;;;4.68;3.03;;;;;;;9.74;100.00;100605.28;4947801;28;20125;-66
2022/12/20 02:55:04;;;;;;;8.27;3.70;;;;;;;9.69;100.00;100604.75;4955435;28;20046;-66
2022/12/20 02:57:45;;;;;;;5.23;3.37;;;;;;;9.68;100.00;100613.94;4957172;28;20031;-67
2022/12/20 03:00:15;;;;;;;7.75;3.55;;;;;;;9.70;100.00;100606.31;4954630;28;20290;-66
2022/12/20 03:05:29;;;;;;;6.30;3.85;;;;;;;9.74;100.00;100607.19;4952637;29;20039;-66
2022/12/20 03:07:55;;;;;;;7.20;3.88;;;;;;;9.76;100.00;100599.53;4949224;29;20027;-66
2022/12/20 03:10:24;;;;;;;9.15;4.10;;;;;;;9.76;99.98;100599.53;4950659;28;20031;-66
2022/12/20 03:12:49;;;;;;;7.95;3.25;;;;;;;9.70;100.00;100596.34;4950100;29;20118;-66
2022/12/20 03:15:15;;;;;;;7.45;3.95;;;;;;;9.63;100.00;100616.91;4950684;29;20050;-66
2022/12/20 03:17:41;;;;;;;8.00;3.63;;;;;;;9.63;100.00;100608.84;4948320;28;20514;-68
2022/12/20 03:20:10;;;;;;;6.85;3.30;;;;;;;9.68;100.00;100608.56;4948596;29;20114;-68
2022/12/20 03:22:36;;;;;;;5.43;3.22;;;;;;;9.68;100.00;100608.56;4948587;28;20031;-68
2022/12/20 03:25:05;;;;;;;6.75;3.70;;;;;;;9.78;100.00;100602.66;4947275;28;20067;-67
2022/12/20 03:27:32;;;;;;;8.77;3.40;;;;;;;9.81;100.00;100616.19;4958125;28;20035;-68
2022/12/20 03:29:58;;;;;;;7.07;3.10;;;;;;;9.96;100.00;100614.59;4943830;29;20390;-68
2022/12/20 03:32:24;;;;;;;8.40;3.72;;;;;;;10.03;100.00;100612.84;4950793;29;20030;-68
2022/12/20 03:34:50;;;;;;;5.78;3.25;;;;;;;10.00;100.00;100612.78;4950010;28;20031;-68
2022/12/20 03:37:21;;;;;;;7.78;4.22;;;;;;;10.01;100.00;100612.41;4951184;29;20038;-68
2022/12/20 03:39:46;;;;;;;6.47;3.75;;;;;;;10.12;100.00;100606.50;4937138;29;20413;-67
2022/12/20 03:42:12;;;;;;;7.25;2.85;;;;;;;10.16;99.97;100602.78;4951447;29;20421;-68
2022/12/20 03:44:37;;;;;;;5.32;3.15;;;;;;;10.06;100.00;100611.38;4949060;28;20031;-67
2022/12/20 03:47:03;;;;;;;7.25;3.47;;;;;;;9.95;100.00;100613.03;4947498;29;20046;-68
2022/12/20 03:49:29;;;;;;;7.57;3.70;;;;;;;9.98;100.00;100623.88;4929718;29;20552;-68
2022/12/20 03:51:55;;;;;;;5.45;3.00;;;;;;;10.12;100.00;100619.97;4932578;29;20054;-68
2022/12/20 03:54:21;;;;;;;6.63;3.95;;;;;;;10.11;99.68;100619.19;4961643;28;20035;-66
2022/12/20 03:57:07;;;;;;;6.13;2.92;;;;;;;10.13;100.00;100632.28;4946599;28;20036;-66
2022/12/20 03:59:34;;;;;;;6.95;3.30;;;;;;;10.07;99.11;100615.59;4950485;29;20042;-66
2022/12/20 04:02:00;;;;;;;6.93;3.90;;;;;;;10.16;99.50;100613.53;4965845;28;20023;-67
2022/12/20 04:04:28;;;;;;;6.35;3.65;;;;;;;10.14;100.00;100604.25;4934319;29;20031;-68
2022/12/20 04:06:53;;;;;;;4.38;2.92;;;;;;;10.14;99.63;100609.63;4950650;28;20035;-69
2022/12/20 04:09:19;;;;;;;7.82;3.75;;;;;;;10.21;99.74;100617.84;4950521;29;20567;-68
2022/12/20 04:11:49;;;;;;;6.38;3.90;;;;;;;10.15;99.33;100608.50;4949448;28;20035;-67
2022/12/20 04:14:14;;;;;;;8.80;3.75;;;;;;;10.19;99.71;100612.81;4950404;29;20045;-68
2022/12/20 04:16:40;;;;;;;6.60;3.70;;;;;;;10.14;98.99;100615.00;4934720;29;20613;-67
2022/12/20 04:19:07;;;;;;;6.10;3.53;;;;;;;10.08;99.54;100600.25;4950622;29;20041;-65
2022/12/20 04:21:40;;;;;;;10.07;3.55;;;;;;;10.13;99.57;100600.78;4943811;28;20031;-66
2022/12/20 04:24:06;;;;;;;7.28;3.78;;;;;;;10.06;99.27;100591.75;4950503;28;20039;-68
2022/12/20 04:26:52;;;;;;;10.77;4.22;;;;;;;10.06;100.00;100600.59;4943373;28;20078;-67
2022/12/20 04:29:17;;;;;;;5.57;2.92;;;;;;;9.95;99.22;100605.75;4933364;29;20075;-67
2022/12/20 04:31:44;;;;;;;8.75;4.03;;;;;;;10.00;99.13;100592.03;4949860;29;20019;-68
2022/12/20 04:34:09;;;;;;;7.63;3.72;;;;;;;9.97;99.24;100595.41;4951953;28;20403;-68
2022/12/20 04:36:35;;;;;;;6.28;2.92;;;;;;;9.98;98.97;100596.19;4953641;28;20031;-67
2022/12/20 04:39:05;;;;;;;8.10;4.13;;;;;;;9.84;99.73;100596.66;4932963;29;20023;-68
2022/12/20 04:41:40;;;;;;;8.88;3.97;;;;;;;9.86;99.79;100582.88;4962767;28;20035;-68
2022/12/20 04:44:09;;;;;;;7.97;3.53;;;;;;;9.80;100.00;100581.56;4953648;29;20381;-67
2022/12/20 04:46:36;;;;;;;10.15;3.75;;;;;;;9.80;100.00;100584.25;4953657;28;20484;-68
2022/12/20 04:49:04;;;;;;;7.00;3.13;;;;;;;9.82;99.99;100580.09;4953540;29;20101;-68
2022/12/20 04:51:35;;;;;;;11.77;4.50;;;;;;;9.93;99.61;100588.38;4953310;29;20113;-67
2022/12/20 04:54:01;;;;;;;6.25;3.63;;;;;;;9.91;99.29;100588.00;4949199;28;20035;-68
2022/12/20 04:56:37;;;;;;;9.98;4.13;;;;;;;9.86;99.07;100589.03;4953610;29;20038;-68
2022/12/20 04:59:07;;;;;;;6.40;3.80;;;;;;;9.96;99.43;100588.50;4953037;29;20078;-69
2022/12/20 05:01:34;;;;;;;8.80;4.32;;;;;;;9.95;99.15;100580.75;4952183;29;20045;-69
2022/12/20 05:04:00;;;;;;;11.48;4.20;;;;;;;9.71;99.94;100589.06;4951482;28;20130;-68
2022/12/20 05:06:29;;;;;;;9.52;4.38;;;;;;;9.82;100.00;100587.38;4954239;29;20483;-68
2022/12/20 05:08:55;;;;;;;5.03;3.38;;;;;;;9.89;99.48;100585.63;4953296;29;20131;-67
2022/12/20 05:11:21;;;;;;;11.02;3.95;;;;;;;9.81;99.99;100591.22;4949218;28;20059;-68
2022/12/20 05:13:46;;;;;;;7.95;3.65;;;;;;;9.66;100.00;100579.34;4935824;29;20547;-67
2022/12/20 05:16:36;;;;;;;6.57;3.75;;;;;;;9.73;100.00;100594.88;4946580;29;20118;-68
2022/12/20 05:19:03;;;;;;;6.75;3.38;;;;;;;9.79;100.00;100586.16;4876257;29;20131;-68
2022/12/20 05:27:15;;;;;;;5.80;3.10;;;;;;;9.70;100.00;100574.03;4869573;29;20040;-69
2022/12/20 05:29:40;;;;;;;7.68;3.97;;;;;;;9.80;100.00;100573.50;4861691;29;20041;-68
2022/12/20 05:32:06;;;;;;;8.52;4.78;;;;;;;9.73;100.00;100581.44;4874725;29;20028;-69
2022/12/20 05:34:36;;;;;;;9.13;4.55;;;;;;;9.76;100.00;100578.03;4860538;29;20041;-68
2022/12/20 05:37:01;;;;;;;5.85;3.60;;;;;;;9.83;100.00;100580.88;4860979;29;20053;-66
2022/12/20 05:39:29;;;;;;;6.05;3.70;;;;;;;9.63;100.00;100576.59;4875756;29;20032;-68
2022/12/20 05:41:59;;;;;;;11.00;4.88;;;;;;;9.62;100.00;100567.72;4875629;29;20037;-68
2022/12/20 05:44:25;;;;;;;13.10;5.05;;;;;;;9.64;100.00;100576.22;4875541;29;20040;-67
2022/12/20 05:46:53;;;;;;;11.88;4.22;;;;;;;9.55;100.00;100580.22;4875323;29;20084;-68
2022/12/20 05:49:24;;;;;;;7.97;4.38;;;;;;;9.52;100.00;100568.28;4858192;29;20041;-67
2022/12/20 05:51:50;;;;;;;8.15;3.92;;;;;;;9.43;100.00;100564.22;4874824;29;20044;-67
2022/12/20 05:54:24;;;;;;;11.35;5.78;;;;;;;9.27;100.00;100568.84;4871552;29;20546;-68
2022/12/20 05:57:09;;;;;;;11.25;5.00;;;;;;;9.36;100.00;100569.41;4949416;29;20130;-68
2022/12/20 05:59:38;;;;;;;8.05;3.92;;;;;;;9.35;100.00;100573.25;4942377;29;20027;-68
2022/12/20 06:02:06;;;;;;;10.35;5.15;;;;;;;9.29;100.00;100586.16;4940368;29;20455;-68
2022/12/20 06:04:34;;;;;;;8.60;3.92;;;;;;;9.48;100.00;100572.03;4952603;28;20027;-68
2022/12/20 06:07:04;;;;;;;8.43;4.35;;;;;;;9.53;100.00;100561.00;4948538;28;20024;-68
2022/12/20 06:09:31;;;;;;;11.38;5.15;;;;;;;9.43;100.00;100556.16;4940308;28;20077;-68
2022/12/20 06:12:05;;;;;;;9.35;4.55;;;;;;;9.40;100.00;100560.31;4949029;28;20519;-68
2022/12/20 06:14:32;;;;;;;8.88;4.28;;;;;;;9.42;100.00;100568.81;4954546;28;20046;-67
2022/12/20 06:16:57;;;;;;;10.73;4.05;;;;;;;9.48;100.00;100564.75;4954150;28;20053;-68
2022/12/20 06:19:23;;;;;;;7.25;4.18;;;;;;;9.51;100.00;100574.00;4960807;28;20393;-68
2022/12/20 06:21:52;;;;;;;8.55;4.65;;;;;;;9.54;100.00;100581.38;4924354;28;20054;-68
2022/12/20 06:24:24;;;;;;;12.95;4.53;;;;;;;9.54;100.00;100584.06;4934661;28;20046;-68
2022/12/20 06:26:51;;;;;;;9.30;5.20;;;;;;;9.68;100.00;100592.44;4948759;28;20038;-68
2022/12/20 06:29:19;;;;;;;10.35;5.10;;;;;;;9.60;100.00;100585.38;4953696;28;20082;-68
2022/12/20 06:31:58;;;;;;;;;;;;;;;9.77;100.00;100584.97;4936922;28;20604;-69
2022/12/20 06:34:26;;;;;;;10.13;3.92;;;;;;;9.84;100.00;100579.75;4942218;28;19915;-69
2022/12/20 06:36:51;;;;;;;15.45;4.15;;;;;;;9.78;100.00;100594.59;4950251;28;20317;-68
2022/12/20 06:39:21;;;;;;;6.15;3.47;;;;;;;9.83;100.00;100581.66;4938104;28;20126;-68
2022/12/20 06:41:55;;;;;;;9.15;4.20;;;;;;;9.78;100.00;100589.22;4932351;28;20082;-69
2022/12/20 06:44:21;;;;;;;10.80;4.20;;;;;;;9.62;100.00;100594.63;4934916;29;20461;-69
2022/12/20 06:46:48;;;;;;;9.90;4.68;;;;;;;9.75;100.00;100579.16;4940381;28;20027;-69
2022/12/20 06:49:14;;;;;;;7.65;4.35;;;;;;;9.75;100.00;100574.56;4948850;29;20039;-68
2022/12/20 06:51:41;;;;;;;10.85;4.40;;;;;;;9.85;100.00;100581.31;4944787;28;20948;-69
2022/12/20 06:54:08;;;;;;;6.25;3.42;;;;;;;9.97;100.00;100570.41;4962115;28;20114;-68
2022/12/20 06:56:34;;;;;;;9.38;4.63;;;;;;;9.86;100.00;100564.81;4934496;29;20494;-68
2022/12/20 06:58:59;;;;;;;5.13;3.38;;;;;;;10.04;100.00;100562.50;4948756;29;20031;-68
2022/12/20 07:01:25;;;;;;;8.98;4.30;;;;;;;9.80;100.00;100560.84;4946077;28;20027;-68
2022/12/20 07:03:50;;;;;;;9.05;4.20;;;;;;;9.67;100.00;100564.00;4944809;28;20090;-68
2022/12/20 07:06:15;;;;;;;8.88;4.43;;;;;;;9.76;100.00;100572.66;4952946;28;20063;-69
2022/12/20 07:08:41;;;;;;;9.30;4.40;;;;;;;9.65;100.00;100560.88;4951258;29;20075;-68
2022/12/20 07:11:07;;;;;;;7.53;4.22;;;;;;;9.72;100.00;100566.41;4952416;28;20037;-68
2022/12/20 07:13:34;;;;;;;7.13;4.13;;;;;;;9.52;100.00;100570.19;4947968;28;20046;-68
2022/12/20 07:16:00;;;;;;;14.85;4.88;;;;;;;9.65;100.00;100574.31;4952636;29;20078;-68
2022/12/20 07:18:26;;;;;;;10.38;4.95;;;;;;;9.72;100.00;100569.88;4952348;28;20452;-69
2022/12/20 07:20:52;;;;;;;8.45;3.85;;;;;;;9.89;100.00;100571.41;4942642;28;20036;-68
2022/12/20 07:23:17;;;;;;;8.48;4.22;;;;;;;9.85;100.00;100584.00;4940096;28;20098;-68
2022/12/20 07:25:43;;;;;;;8.85;4.55;;;;;;;9.99;100.00;100576.22;4952292;28;20035;-68
2022/12/20 07:28:08;;;;;;;9.30;4.20;;;;;;;9.93;100.00;100585.69;4950868;29;20094;-68
2022/12/20 07:30:34;;;;;;;10.13;4.53;;;;;;;9.80;100.00;100578.88;4945912;28;20043;-68
2022/12/20 07:32:59;;;;;;;9.00;4.55;;;;;;;9.77;100.00;100572.31;4954491;28;20133;-68
2022/12/20 07:35:25;;;;;;;10.40;4.13;;;;;;;9.87;100.00;100574.44;4959048;28;20030;-68
2022/12/20 07:37:51;;;;;;;8.98;4.72;;;;;;;9.92;100.00;100574.19;4956661;28;20039;-68
2022/12/20 07:40:16;;;;;;;9.13;5.07;;;;;;;9.84;100.00;100569.00;4940466;28;20046;-68
2022/12/20 07:42:41;;;;;;;9.35;4.90;;;;;;;9.86;100.00;100567.50;4957344;28;20050;-68
2022/12/20 07:45:07;;;;;;;7.30;3.97;;;;;;;9.88;100.00;100559.09;4952407;28;20039;-68
2022/12/20 07:47:34;;;;;;;7.43;4.22;;;;;;;9.86;100.00;100555.97;4943029;28;20588;-68
2022/12/20 07:50:00;;;;;;;11.52;5.03;;;;;;;9.78;100.00;100560.41;4950706;28;20072;-65
2022/12/20 07:52:27;;;;;;;12.73;5.75;;;;;;;9.74;100.00;100559.56;4943441;29;20042;-65
2022/12/20 07:54:56;;;;;;;9.07;5.80;;;;;;;9.57;100.00;100557.25;4953245;28;20035;-67
2022/12/20 07:57:26;;;;;;;11.63;4.82;;;;;;;9.82;100.00;100572.03;4952517;28;20169;-64
2022/12/20 07:59:55;;;;;;;8.63;4.72;;;;;;;9.86;100.00;100572.09;4947692;28;20400;-66
2022/12/20 08:02:27;;;;;;;10.82;5.85;;;;;;;9.79;100.00;100561.97;4939681;28;20170;-67
2022/12/20 08:04:54;;;;;;;8.60;4.13;;;;;;;9.88;100.00;100569.84;4955825;28;20453;-65
2022/12/20 08:07:20;;;;;;;10.80;5.43;;;;;;;10.02;100.00;100564.78;4957476;28;20170;-65
2022/12/20 08:09:46;;;;;;;7.03;4.50;;;;;;;10.04;100.00;100549.81;4956682;28;20122;-66
2022/12/20 08:12:14;;;;;;;9.70;5.28;;;;;;;10.08;100.00;100557.19;4968528;28;20556;-67
2022/12/20 08:14:40;;;;;;;11.50;4.80;;;;;;;9.98;100.00;100547.78;4961520;28;20133;-66
2022/12/20 08:17:05;;;;;;;12.40;5.45;;;;;;;9.88;100.00;100549.13;4951666;28;20051;-68
2022/12/20 08:19:31;;;;;;;9.55;4.70;;;;;;;9.97;100.00;100546.22;4953670;29;20432;-66
2022/12/20 08:21:56;;;;;;;11.57;4.97;;;;;;;9.78;100.00;100549.66;4963511;28;20049;-65
2022/12/20 08:24:22;;;;;;;7.60;4.07;;;;;;;9.76;100.00;100545.75;4959593;28;20061;-66
2022/12/20 08:26:47;;;;;;;9.88;4.63;;;;;;;9.97;100.00;100540.81;4944508;28;20581;-67
2022/12/20 08:29:12;;;;;;;9.70;4.88;;;;;;;10.00;100.00;100542.81;4945220;28;20560;-67
2022/12/20 08:31:43;;;;;;;11.57;5.32;;;;;;;9.87;100.00;100539.47;4955768;28;20023;-68
2022/12/20 08:34:09;;;;;;;9.20;4.22;;;;;;;10.10;100.00;100539.59;4962098;28;20089;-67
2022/12/20 08:36:34;;;;;;;9.10;5.55;;;;;;;10.09;100.00;100521.06;4954791;28;20705;-67
2022/12/20 08:39:04;;;;;;;8.15;4.57;;;;;;;10.04;100.00;100522.91;4956276;29;20045;-68
2022/12/20 08:41:31;;;;;;;7.18;4.97;;;;;;;10.08;100.00;100524.91;4956116;28;20039;-66
2022/12/20 08:43:56;;;;;;;10.40;4.93;;;;;;;10.05;100.00;100512.94;4945569;28;20035;-66
2022/12/20 08:46:21;;;;;;;12.80;6.07;;;;;;;9.94;100.00;100523.50;4965952;28;20118;-68
2022/12/20 08:48:47;;;;;;;8.77;4.40;;;;;;;10.04;100.00;100525.59;4954516;29;20118;-67
2022/12/20 08:51:15;;;;;;;12.93;5.20;;;;;;;10.04;100.00;100520.22;4954572;29;20408;-68
2022/12/20 08:53:41;;;;;;;10.55;4.50;;;;;;;10.03;100.00;100517.91;4937562;29;20548;-67
2022/12/20 08:56:06;;;;;;;10.57;5.50;;;;;;;10.06;100.00;100519.91;4955911;29;20106;-67
2022/12/20 08:58:32;;;;;;;11.30;4.65;;;;;;;9.85;100.00;100519.47;4956045;29;20047;-65
2022/12/20 09:01:01;;;;;;;6.43;3.70;;;;;;;10.01;100.00;100530.91;4953790;28;20035;-65
2022/12/20 09:03:32;;;;;;;13.02;5.68;;;;;;;9.98;100.00;100518.19;4951279;28;20043;-68
2022/12/20 09:06:05;;;;;;;11.55;5.68;;;;;;;10.18;100.00;100529.75;4955190;29;20118;-68
2022/12/20 09:08:32;;;;;;;9.38;4.18;;;;;;;10.11;100.00;100516.94;4934758;29;20081;-67
2022/12/20 09:11:08;;;;;;;10.45;5.53;;;;;;;10.13;100.00;100520.06;4933494;29;20035;-67
2022/12/20 09:13:34;;;;;;;17.38;5.07;;;;;;;10.16;100.00;100515.88;4921568;29;20122;-68
2022/12/20 09:16:02;;;;;;;10.65;4.75;;;;;;;10.30;100.00;100510.78;4937314;29;20114;-68
2022/12/20 09:18:27;;;;;;;7.85;4.28;;;;;;;10.33;100.00;100502.78;4940722;28;20042;-68
2022/12/20 09:20:53;;;;;;;8.50;4.63;;;;;;;10.49;100.00;100511.50;4936767;29;20500;-68
2022/12/20 09:23:18;;;;;;;10.32;5.15;;;;;;;10.25;100.00;100503.75;4938842;29;20030;-67
2022/12/20 09:25:44;;;;;;;12.27;5.30;;;;;;;10.29;100.00;100517.28;4936544;29;20039;-68
2022/12/20 09:28:10;;;;;;;7.60;4.70;;;;;;;10.38;100.00;100507.84;4937742;28;20100;-68
2022/12/20 09:30:35;;;;;;;10.48;5.45;;;;;;;10.49;100.00;100516.13;4937974;28;20062;-68
2022/12/20 09:33:03;;;;;;;10.10;5.20;;;;;;;10.49;100.00;100519.59;4936980;29;20050;-68
2022/12/20 09:35:29;;;;;;;12.23;5.13;;;;;;;10.47;100.00;100518.41;4941113;28;20091;-67
2022/12/20 09:37:54;;;;;;;9.90;5.22;;;;;;;10.62;100.00;100521.00;4940425;29;20108;-66
2022/12/20 09:40:23;;;;;;;13.98;4.50;;;;;;;10.46;100.00;100519.53;4952467;28;20043;-67
2022/12/20 09:42:49;;;;;;;13.95;4.85;;;;;;;10.54;100.00;100516.63;4949782;28;20634;-68
2022/12/20 09:45:24;;;;;;;7.72;4.18;;;;;;;10.60;100.00;100515.19;4957228;28;20531;-67
2022/12/20 09:47:51;;;;;;;9.27;4.28;;;;;;;10.68;100.00;100513.41;4951907;28;20034;-68
2022/12/20 09:50:19;;;;;;;10.15;5.40;;;;;;;10.64;100.00;100510.66;4950218;28;20060;-69
2022/12/20 09:53:04;;;;;;;10.50;5.70;;;;;;;10.54;100.00;100516.63;4941990;28;20316;-69
2022/12/20 09:55:45;;;;;;;10.23;4.85;;;;;;;10.67;100.00;100518.00;4952344;29;20106;-67
2022/12/20 09:58:20;;;;;;;9.35;5.00;;;;;;;10.59;100.00;100508.22;4953374;29;20043;-66
2022/12/20 10:00:47;;;;;;;8.27;4.88;;;;;;;10.63;100.00;100510.97;4953004;28;20039;-66
2022/12/20 10:03:24;;;;;;;8.20;4.35;;;;;;;10.75;100.00;100513.50;4949363;28;20043;-68
2022/12/20 10:05:57;;;;;;;11.57;5.18;;;;;;;10.71;100.00;100505.38;4943810;29;20128;-68
2022/12/20 10:08:44;;;;;;;9.38;5.07;;;;;;;10.72;100.00;100498.09;4953437;28;20035;-68
2022/12/20 10:11:32;;;;;;;8.10;4.57;;;;;;;10.53;100.00;100498.88;4936559;28;20035;-66
2022/12/20 10:14:16;;;;;;;12.02;5.53;;;;;;;10.64;100.00;100505.25;4934606;29;20044;-66
2022/12/20 10:16:49;;;;;;;12.27;5.43;;;;;;;10.78;100.00;100491.25;4937048;29;20040;-67
2022/12/20 10:19:47;;;;;;;7.63;4.72;;;;;;;10.88;100.00;100488.72;4936791;28;20473;-67
2022/12/20 10:22:24;;;;;;;11.25;4.43;;;;;;;10.87;100.00;100483.69;4937172;28;20040;-68
2022/12/20 10:24:57;;;;;;;6.28;4.18;;;;;;;10.94;100.00;100491.88;4937029;29;20086;-68
2022/12/20 10:27:23;;;;;;;11.63;5.60;;;;;;;11.06;100.00;100482.84;4936008;28;20485;-67
2022/12/20 10:29:49;;;;;;;13.88;5.90;;;;;;;11.12;100.00;100487.56;4946611;29;20026;-67
2022/12/20 10:32:19;;;;;;;10.63;5.15;;;;;;;11.14;100.00;100482.59;4951576;29;20043;-67
2022/12/20 10:35:20;;;;;;;10.70;5.00;;;;;;;11.13;100.00;100474.88;4942358;28;20032;-67
2022/12/20 10:38:17;;;;;;;12.05;4.70;;;;;;;11.20;100.00;100469.59;4936820;28;20032;-67
2022/12/20 10:40:54;;;;;;;5.38;3.33;;;;;;;11.28;100.00;100457.75;4927613;28;20089;-67
2022/12/20 10:43:22;;;;;;;9.52;4.13;;;;;;;11.21;100.00;100444.94;4933904;29;20109;-66
2022/12/20 10:46:00;;;;;;;9.45;4.85;;;;;;;11.18;100.00;100447.59;4935410;28;20039;-67
2022/12/20 10:48:25;;;;;;;9.95;4.75;;;;;;;11.21;100.00;100449.56;4947504;29;20042;-67
2022/12/20 10:51:16;;;;;;;6.35;4.28;;;;;;;11.21;100.00;100439.56;4940473;28;20095;-66
2022/12/20 10:53:53;;;;;;;7.38;4.25;;;;;;;11.20;100.00;100448.00;4913303;29;20051;-67
2022/12/20 10:56:31;;;;;;;7.78;4.45;;;;;;;11.28;100.00;100461.25;4934684;29;20118;-67
2022/12/20 10:59:20;;;;;;;7.18;4.18;;;;;;;11.38;100.00;100462.53;4939148;28;20077;-66
2022/12/20 11:01:47;;;;;;;8.95;4.10;;;;;;;11.35;100.00;100463.25;4947698;28;20036;-66
2022/12/20 11:04:34;;;;;;;8.55;4.13;;;;;;;11.20;100.00;100454.19;4937709;29;20030;-66
2022/12/20 11:07:22;;;;;;;12.48;4.72;;;;;;;11.22;100.00;100448.44;4925728;29;20495;-67
2022/12/20 11:09:54;;;;;;;11.10;3.65;;;;;;;11.16;100.00;100439.88;4940745;28;20489;-67
2022/12/20 11:12:19;;;;;;;;;;;;;;;11.38;100.00;100432.88;4950997;28;20043;-67
2022/12/20 11:14:46;;;;;;;7.90;4.38;;;;;;;11.26;100.00;100423.09;4941522;28;20017;-68
2022/12/20 11:17:40;;;;;;;8.02;4.32;;;;;;;11.08;100.00;100424.75;4919856;29;20082;-67
2022/12/20 11:20:28;;;;;;;9.15;4.93;;;;;;;10.89;100.00;100422.16;4938316;28;20437;-67
2022/12/20 11:23:11;;;;;;;17.30;5.00;;;;;;;11.17;100.00;100411.78;4941442;29;20035;-67
2022/12/20 11:25:58;;;;;;;8.77;4.25;;;;;;;11.26;100.00;100415.00;4936981;29;20044;-67
2022/12/20 11:29:03;;;;;;;10.77;4.75;;;;;;;11.12;100.00;100395.94;4948346;28;20053;-67
2022/12/20 11:31:58;;;;;;;6.45;3.17;;;;;;;11.21;100.00;100409.13;4952083;28;20397;-67
2022/12/20 11:34:36;;;;;;;7.13;3.90;;;;;;;11.25;100.00;100405.34;4949735;28;20402;-67
2022/12/20 11:37:23;;;;;;;9.43;4.85;;;;;;;11.19;99.85;100401.41;4935321;28;20027;-67
2022/12/20 11:39:48;;;;;;;12.73;4.65;;;;;;;11.23;100.00;100401.47;4937532;28;20050;-67
2022/12/20 11:42:17;;;;;;;12.65;4.40;;;;;;;11.37;100.00;100396.25;4935663;28;20114;-67
2022/12/20 11:44:45;;;;;;;7.93;4.15;;;;;;;11.50;100.00;100384.09;4933913;28;20124;-67
2022/12/20 11:47:35;;;;;;;8.27;3.58;;;;;;;11.51;98.99;100385.66;4940816;29;20464;-68